sensor_id;sensor_type;location;lat;lon;timestamp;pressure;altitude;pressure_sealevel;temperature
13570;BMP180;6856;51.460;7.158;2023-02-27T00:01:06;101504.00;;;5.00
13570;BMP180;6856;51.460;7.158;2023-02-27T00:03:40;101502.00;;;5.00
13570;BMP180;6856;51.460;7.158;2023-02-27T00:06:16;101512.00;;;5.00
13570;BMP180;6856;51.460;7.158;2023-02-27T00:08:50;101513.00;;;5.00
13570;BMP180;6856;51.460;7.158;2023-02-27T00:11:24;101514.00;;;4.90
13570;BMP180;6856;51.460;7.158;2023-02-27T00:13:58;101509.00;;;4.90
13570;BMP180;6856;51.460;7.158;2023-02-27T00:16:32;101506.00;;;4.90
13570;BMP180;6856;51.460;7.158;2023-02-27T00:19:07;101500.00;;;4.90
13570;BMP180;6856;51.460;7.158;2023-02-27T00:21:42;101496.00;;;4.80
13570;BMP180;6856;51.460;7.158;2023-02-27T00:24:16;101498.00;;;4.80
13570;BMP180;6856;51.460;7.158;2023-02-27T00:26:50;101479.00;;;4.80
13570;BMP180;6856;51.460;7.158;2023-02-27T00:29:24;101486.00;;;4.80
13570;BMP180;6856;51.460;7.158;2023-02-27T00:31:58;101499.00;;;4.80
13570;BMP180;6856;51.460;7.158;2023-02-27T00:34:32;101499.00;;;4.80
13570;BMP180;6856;51.460;7.158;2023-02-27T00:37:07;101499.00;;;4.80
13570;BMP180;6856;51.460;7.158;2023-02-27T00:39:41;101500.00;;;4.80
13570;BMP180;6856;51.460;7.158;2023-02-27T00:42:15;101498.00;;;4.70
13570;BMP180;6856;51.460;7.158;2023-02-27T00:44:49;101494.00;;;4.70
13570;BMP180;6856;51.460;7.158;2023-02-27T00:47:23;101504.00;;;4.70
13570;BMP180;6856;51.460;7.158;2023-02-27T00:49:56;101501.00;;;4.70
13570;BMP180;6856;51.460;7.158;2023-02-27T00:52:32;101494.00;;;4.70
13570;BMP180;6856;51.460;7.158;2023-02-27T00:55:07;101485.00;;;4.70
13570;BMP180;6856;51.460;7.158;2023-02-27T00:57:41;101500.00;;;4.70
13570;BMP180;6856;51.460;7.158;2023-02-27T01:00:16;101500.00;;;4.70
13570;BMP180;6856;51.460;7.158;2023-02-27T01:02:50;101500.00;;;4.70
13570;BMP180;6856;51.460;7.158;2023-02-27T01:05:25;101499.00;;;4.70
13570;BMP180;6856;51.460;7.158;2023-02-27T01:08:01;101502.00;;;4.70
13570;BMP180;6856;51.460;7.158;2023-02-27T01:10:35;101494.00;;;4.70
13570;BMP180;6856;51.460;7.158;2023-02-27T01:13:09;101493.00;;;4.70
13570;BMP180;6856;51.460;7.158;2023-02-27T01:15:43;101493.00;;;4.70
13570;BMP180;6856;51.460;7.158;2023-02-27T01:18:17;101494.00;;;4.60
13570;BMP180;6856;51.460;7.158;2023-02-27T01:20:52;101497.00;;;4.60
13570;BMP180;6856;51.460;7.158;2023-02-27T01:23:27;101493.00;;;4.60
13570;BMP180;6856;51.460;7.158;2023-02-27T01:26:01;101496.00;;;4.60
13570;BMP180;6856;51.460;7.158;2023-02-27T01:28:37;101496.00;;;4.50
13570;BMP180;6856;51.460;7.158;2023-02-27T01:31:12;101488.00;;;4.50
13570;BMP180;6856;51.460;7.158;2023-02-27T01:33:45;101482.00;;;4.50
13570;BMP180;6856;51.460;7.158;2023-02-27T01:36:20;101490.00;;;4.50
13570;BMP180;6856;51.460;7.158;2023-02-27T01:38:56;101493.00;;;4.50
13570;BMP180;6856;51.460;7.158;2023-02-27T01:41:30;101499.00;;;4.50
13570;BMP180;6856;51.460;7.158;2023-02-27T01:44:07;101329.00;;;4.50
13570;BMP180;6856;51.460;7.158;2023-02-27T01:46:41;101492.00;;;4.50
13570;BMP180;6856;51.460;7.158;2023-02-27T01:49:21;101487.00;;;4.50
13570;BMP180;6856;51.460;7.158;2023-02-27T01:52:03;101492.00;;;4.50
13570;BMP180;6856;51.460;7.158;2023-02-27T01:54:41;101490.00;;;4.50
13570;BMP180;6856;51.460;7.158;2023-02-27T01:57:15;101488.00;;;4.50
13570;BMP180;6856;51.460;7.158;2023-02-27T01:59:49;101487.00;;;4.40
13570;BMP180;6856;51.460;7.158;2023-02-27T02:02:29;101491.00;;;4.40
13570;BMP180;6856;51.460;7.158;2023-02-27T02:05:06;101488.00;;;4.40
13570;BMP180;6856;51.460;7.158;2023-02-27T02:07:43;101492.00;;;4.40
13570;BMP180;6856;51.460;7.158;2023-02-27T02:10:20;101493.00;;;4.40
13570;BMP180;6856;51.460;7.158;2023-02-27T02:12:54;101493.00;;;4.40
13570;BMP180;6856;51.460;7.158;2023-02-27T02:15:35;101460.00;;;4.40
13570;BMP180;6856;51.460;7.158;2023-02-27T02:18:21;101494.00;;;4.30
13570;BMP180;6856;51.460;7.158;2023-02-27T02:21:38;101497.00;;;4.30
13570;BMP180;6856;51.460;7.158;2023-02-27T02:24:57;101480.00;;;4.30
13570;BMP180;6856;51.460;7.158;2023-02-27T02:27:58;101479.00;;;4.20
13570;BMP180;6856;51.460;7.158;2023-02-27T02:31:17;101497.00;;;4.20
13570;BMP180;6856;51.460;7.158;2023-02-27T02:41:09;101501.00;;;4.10
13570;BMP180;6856;51.460;7.158;2023-02-27T02:43:59;101493.00;;;4.10
13570;BMP180;6856;51.460;7.158;2023-02-27T02:46:44;101494.00;;;4.00
13570;BMP180;6856;51.460;7.158;2023-02-27T02:49:29;101501.00;;;4.00
13570;BMP180;6856;51.460;7.158;2023-02-27T02:52:13;101505.00;;;4.00
13570;BMP180;6856;51.460;7.158;2023-02-27T02:54:56;101500.00;;;4.00
13570;BMP180;6856;51.460;7.158;2023-02-27T02:57:41;101504.00;;;3.90
13570;BMP180;6856;51.460;7.158;2023-02-27T03:00:20;101496.00;;;3.90
13570;BMP180;6856;51.460;7.158;2023-02-27T03:02:59;101504.00;;;3.90
13570;BMP180;6856;51.460;7.158;2023-02-27T03:05:41;101490.00;;;3.90
13570;BMP180;6856;51.460;7.158;2023-02-27T03:08:23;101513.00;;;3.90
13570;BMP180;6856;51.460;7.158;2023-02-27T03:11:01;101504.00;;;3.80
13570;BMP180;6856;51.460;7.158;2023-02-27T03:13:45;101507.00;;;3.80
13570;BMP180;6856;51.460;7.158;2023-02-27T03:16:28;101510.00;;;3.80
13570;BMP180;6856;51.460;7.158;2023-02-27T03:19:11;101514.00;;;3.80
13570;BMP180;6856;51.460;7.158;2023-02-27T03:21:52;101492.00;;;3.80
13570;BMP180;6856;51.460;7.158;2023-02-27T03:24:33;101509.00;;;3.80
13570;BMP180;6856;51.460;7.158;2023-02-27T03:27:09;101506.00;;;3.80
13570;BMP180;6856;51.460;7.158;2023-02-27T03:29:50;101506.00;;;3.70
13570;BMP180;6856;51.460;7.158;2023-02-27T03:32:32;101496.00;;;3.70
13570;BMP180;6856;51.460;7.158;2023-02-27T03:35:10;101498.00;;;3.70
13570;BMP180;6856;51.460;7.158;2023-02-27T03:37:56;101496.00;;;3.70
13570;BMP180;6856;51.460;7.158;2023-02-27T03:40:36;101507.00;;;3.60
13570;BMP180;6856;51.460;7.158;2023-02-27T03:43:20;101501.00;;;3.60
13570;BMP180;6856;51.460;7.158;2023-02-27T03:46:03;101506.00;;;3.60
13570;BMP180;6856;51.460;7.158;2023-02-27T03:48:40;101494.00;;;3.60
13570;BMP180;6856;51.460;7.158;2023-02-27T03:51:19;101501.00;;;3.60
13570;BMP180;6856;51.460;7.158;2023-02-27T03:54:00;101501.00;;;3.60
13570;BMP180;6856;51.460;7.158;2023-02-27T03:56:39;101501.00;;;3.60
13570;BMP180;6856;51.460;7.158;2023-02-27T03:59:15;101502.00;;;3.60
13570;BMP180;6856;51.460;7.158;2023-02-27T04:01:51;101512.00;;;3.50
13570;BMP180;6856;51.460;7.158;2023-02-27T04:04:28;101513.00;;;3.40
13570;BMP180;6856;51.460;7.158;2023-02-27T04:07:11;101510.00;;;3.50
13570;BMP180;6856;51.460;7.158;2023-02-27T04:10:18;101507.00;;;3.50
13570;BMP180;6856;51.460;7.158;2023-02-27T04:13:18;101512.00;;;3.50
13570;BMP180;6856;51.460;7.158;2023-02-27T04:19:20;101525.00;;;3.40
13570;BMP180;6856;51.460;7.158;2023-02-27T04:22:12;101535.00;;;3.40
13570;BMP180;6856;51.460;7.158;2023-02-27T04:25:01;101524.00;;;3.30
13570;BMP180;6856;51.460;7.158;2023-02-27T04:27:47;101529.00;;;3.30
13570;BMP180;6856;51.460;7.158;2023-02-27T04:30:29;101524.00;;;3.30
13570;BMP180;6856;51.460;7.158;2023-02-27T04:33:11;101531.00;;;3.30
13570;BMP180;6856;51.460;7.158;2023-02-27T04:35:52;101529.00;;;3.30
13570;BMP180;6856;51.460;7.158;2023-02-27T04:38:33;101523.00;;;3.30
13570;BMP180;6856;51.460;7.158;2023-02-27T04:41:12;101531.00;;;3.20
13570;BMP180;6856;51.460;7.158;2023-02-27T04:43:50;101531.00;;;3.20
13570;BMP180;6856;51.460;7.158;2023-02-27T04:46:28;101532.00;;;3.20
13570;BMP180;6856;51.460;7.158;2023-02-27T04:49:08;101544.00;;;3.20
13570;BMP180;6856;51.460;7.158;2023-02-27T04:51:52;101544.00;;;3.10
13570;BMP180;6856;51.460;7.158;2023-02-27T04:54:31;101543.00;;;3.20
13570;BMP180;6856;51.460;7.158;2023-02-27T04:57:11;101543.00;;;3.10
13570;BMP180;6856;51.460;7.158;2023-02-27T04:59:55;101533.00;;;3.10
13570;BMP180;6856;51.460;7.158;2023-02-27T05:02:35;101539.00;;;3.10
13570;BMP180;6856;51.460;7.158;2023-02-27T05:05:15;101550.00;;;3.10
13570;BMP180;6856;51.460;7.158;2023-02-27T05:07:58;101551.00;;;3.10
13570;BMP180;6856;51.460;7.158;2023-02-27T05:10:37;101550.00;;;3.10
13570;BMP180;6856;51.460;7.158;2023-02-27T05:13:18;101548.00;;;3.00
13570;BMP180;6856;51.460;7.158;2023-02-27T05:16:00;101554.00;;;3.00
13570;BMP180;6856;51.460;7.158;2023-02-27T05:18:39;101548.00;;;3.00
13570;BMP180;6856;51.460;7.158;2023-02-27T05:21:28;101538.00;;;3.00
13570;BMP180;6856;51.460;7.158;2023-02-27T05:24:15;101550.00;;;3.00
13570;BMP180;6856;51.460;7.158;2023-02-27T05:27:11;101563.00;;;3.00
13570;BMP180;6856;51.460;7.158;2023-02-27T05:29:50;101568.00;;;2.90
13570;BMP180;6856;51.460;7.158;2023-02-27T05:32:36;101575.00;;;2.90
13570;BMP180;6856;51.460;7.158;2023-02-27T05:35:22;101563.00;;;2.90
13570;BMP180;6856;51.460;7.158;2023-02-27T05:38:05;101543.00;;;2.90
13570;BMP180;6856;51.460;7.158;2023-02-27T05:40:47;101565.00;;;2.90
13570;BMP180;6856;51.460;7.158;2023-02-27T05:43:27;101561.00;;;2.90
13570;BMP180;6856;51.460;7.158;2023-02-27T05:46:07;101569.00;;;2.90
13570;BMP180;6856;51.460;7.158;2023-02-27T05:48:49;101563.00;;;2.80
13570;BMP180;6856;51.460;7.158;2023-02-27T05:51:31;101563.00;;;2.80
13570;BMP180;6856;51.460;7.158;2023-02-27T05:54:11;101543.00;;;2.80
13570;BMP180;6856;51.460;7.158;2023-02-27T05:56:53;101565.00;;;2.80
13570;BMP180;6856;51.460;7.158;2023-02-27T05:59:36;101583.00;;;2.80
13570;BMP180;6856;51.460;7.158;2023-02-27T06:02:14;101580.00;;;2.80
13570;BMP180;6856;51.460;7.158;2023-02-27T06:04:49;101584.00;;;2.80
13570;BMP180;6856;51.460;7.158;2023-02-27T06:07:23;101590.00;;;2.70
13570;BMP180;6856;51.460;7.158;2023-02-27T06:09:58;101587.00;;;2.70
13570;BMP180;6856;51.460;7.158;2023-02-27T06:12:33;101598.00;;;2.70
13570;BMP180;6856;51.460;7.158;2023-02-27T06:15:08;101604.00;;;2.70
13570;BMP180;6856;51.460;7.158;2023-02-27T06:17:43;101619.00;;;2.70
13570;BMP180;6856;51.460;7.158;2023-02-27T06:20:17;101621.00;;;2.70
13570;BMP180;6856;51.460;7.158;2023-02-27T06:22:51;101621.00;;;2.60
13570;BMP180;6856;51.460;7.158;2023-02-27T06:25:25;101618.00;;;2.70
13570;BMP180;6856;51.460;7.158;2023-02-27T06:28:01;101619.00;;;2.70
13570;BMP180;6856;51.460;7.158;2023-02-27T06:30:35;101609.00;;;2.70
13570;BMP180;6856;51.460;7.158;2023-02-27T06:33:09;101620.00;;;2.70
13570;BMP180;6856;51.460;7.158;2023-02-27T06:35:46;101632.00;;;2.70
13570;BMP180;6856;51.460;7.158;2023-02-27T06:38:20;101630.00;;;2.70
13570;BMP180;6856;51.460;7.158;2023-02-27T06:40:55;101613.00;;;2.60
13570;BMP180;6856;51.460;7.158;2023-02-27T06:43:30;101626.00;;;2.60
13570;BMP180;6856;51.460;7.158;2023-02-27T06:46:06;101622.00;;;2.60
13570;BMP180;6856;51.460;7.158;2023-02-27T06:48:40;101634.00;;;2.60
13570;BMP180;6856;51.460;7.158;2023-02-27T06:51:13;101628.00;;;2.60
13570;BMP180;6856;51.460;7.158;2023-02-27T06:53:47;101634.00;;;2.60
13570;BMP180;6856;51.460;7.158;2023-02-27T06:56:21;101644.00;;;2.60
13570;BMP180;6856;51.460;7.158;2023-02-27T06:58:57;101621.00;;;2.60
13570;BMP180;6856;51.460;7.158;2023-02-27T07:01:31;101634.00;;;2.60
13570;BMP180;6856;51.460;7.158;2023-02-27T07:04:05;101643.00;;;2.60
13570;BMP180;6856;51.460;7.158;2023-02-27T07:06:40;101634.00;;;2.60
13570;BMP180;6856;51.460;7.158;2023-02-27T07:09:34;101640.00;;;2.60
13570;BMP180;6856;51.460;7.158;2023-02-27T07:12:08;101642.00;;;2.70
13570;BMP180;6856;51.460;7.158;2023-02-27T07:14:43;101654.00;;;2.70
13570;BMP180;6856;51.460;7.158;2023-02-27T07:17:18;101659.00;;;2.70
13570;BMP180;6856;51.460;7.158;2023-02-27T07:19:51;101659.00;;;2.80
13570;BMP180;6856;51.460;7.158;2023-02-27T07:22:26;101661.00;;;2.80
13570;BMP180;6856;51.460;7.158;2023-02-27T07:25:00;101662.00;;;2.80
13570;BMP180;6856;51.460;7.158;2023-02-27T07:27:34;101667.00;;;2.90
13570;BMP180;6856;51.460;7.158;2023-02-27T07:30:12;101663.00;;;3.00
13570;BMP180;6856;51.460;7.158;2023-02-27T07:32:47;101670.00;;;3.00
13570;BMP180;6856;51.460;7.158;2023-02-27T07:35:21;101664.00;;;3.10
13570;BMP180;6856;51.460;7.158;2023-02-27T07:37:55;101672.00;;;3.10
13570;BMP180;6856;51.460;7.158;2023-02-27T07:40:29;101679.00;;;3.20
13570;BMP180;6856;51.460;7.158;2023-02-27T07:43:03;101683.00;;;3.30
13570;BMP180;6856;51.460;7.158;2023-02-27T07:45:38;101681.00;;;3.30
13570;BMP180;6856;51.460;7.158;2023-02-27T07:48:12;101688.00;;;3.40
13570;BMP180;6856;51.460;7.158;2023-02-27T07:50:48;101682.00;;;3.50
13570;BMP180;6856;51.460;7.158;2023-02-27T07:53:22;101694.00;;;3.50
13570;BMP180;6856;51.460;7.158;2023-02-27T07:55:57;101687.00;;;3.60
13570;BMP180;6856;51.460;7.158;2023-02-27T07:58:31;101683.00;;;3.60
13570;BMP180;6856;51.460;7.158;2023-02-27T08:01:15;101679.00;;;3.70
13570;BMP180;6856;51.460;7.158;2023-02-27T08:03:49;101688.00;;;3.80
13570;BMP180;6856;51.460;7.158;2023-02-27T08:06:23;101686.00;;;3.80
13570;BMP180;6856;51.460;7.158;2023-02-27T08:08:58;101689.00;;;3.90
13570;BMP180;6856;51.460;7.158;2023-02-27T08:11:32;101694.00;;;4.00
13570;BMP180;6856;51.460;7.158;2023-02-27T08:14:06;101694.00;;;4.00
13570;BMP180;6856;51.460;7.158;2023-02-27T08:16:42;101691.00;;;4.10
13570;BMP180;6856;51.460;7.158;2023-02-27T08:19:16;101687.00;;;4.20
13570;BMP180;6856;51.460;7.158;2023-02-27T08:21:50;101688.00;;;4.30
13570;BMP180;6856;51.460;7.158;2023-02-27T08:24:24;101689.00;;;4.40
13570;BMP180;6856;51.460;7.158;2023-02-27T08:26:58;101698.00;;;4.40
13570;BMP180;6856;51.460;7.158;2023-02-27T08:29:32;101702.00;;;4.60
13570;BMP180;6856;51.460;7.158;2023-02-27T08:32:09;101701.00;;;4.60
13570;BMP180;6856;51.460;7.158;2023-02-27T08:34:43;101707.00;;;4.70
13570;BMP180;6856;51.460;7.158;2023-02-27T08:37:16;101701.00;;;4.80
13570;BMP180;6856;51.460;7.158;2023-02-27T08:39:50;101700.00;;;4.80
13570;BMP180;6856;51.460;7.158;2023-02-27T08:42:24;101709.00;;;4.90
13570;BMP180;6856;51.460;7.158;2023-02-27T08:44:58;101697.00;;;5.00
13570;BMP180;6856;51.460;7.158;2023-02-27T08:47:33;101709.00;;;5.10
13570;BMP180;6856;51.460;7.158;2023-02-27T08:50:09;101715.00;;;5.20
13570;BMP180;6856;51.460;7.158;2023-02-27T08:52:43;101708.00;;;5.30
13570;BMP180;6856;51.460;7.158;2023-02-27T08:55:17;101717.00;;;5.40
13570;BMP180;6856;51.460;7.158;2023-02-27T08:57:53;101709.00;;;5.40
13570;BMP180;6856;51.460;7.158;2023-02-27T09:00:28;101715.00;;;5.60
13570;BMP180;6856;51.460;7.158;2023-02-27T09:03:05;101713.00;;;5.60
13570;BMP180;6856;51.460;7.158;2023-02-27T09:05:40;101713.00;;;5.70
13570;BMP180;6856;51.460;7.158;2023-02-27T09:08:14;101711.00;;;5.80
13570;BMP180;6856;51.460;7.158;2023-02-27T09:10:55;101711.00;;;5.90
13570;BMP180;6856;51.460;7.158;2023-02-27T09:13:29;101717.00;;;6.00
13570;BMP180;6856;51.460;7.158;2023-02-27T09:16:04;101711.00;;;6.10
13570;BMP180;6856;51.460;7.158;2023-02-27T09:18:40;101711.00;;;6.20
13570;BMP180;6856;51.460;7.158;2023-02-27T09:21:15;101721.00;;;6.20
13570;BMP180;6856;51.460;7.158;2023-02-27T09:23:49;101711.00;;;6.30
13570;BMP180;6856;51.460;7.158;2023-02-27T09:26:23;101716.00;;;6.40
13570;BMP180;6856;51.460;7.158;2023-02-27T09:29:14;101708.00;;;6.40
13570;BMP180;6856;51.460;7.158;2023-02-27T09:31:48;101712.00;;;6.50
13570;BMP180;6856;51.460;7.158;2023-02-27T09:34:25;101710.00;;;6.60
13570;BMP180;6856;51.460;7.158;2023-02-27T09:36:59;101716.00;;;6.70
13570;BMP180;6856;51.460;7.158;2023-02-27T09:39:33;101709.00;;;6.70
13570;BMP180;6856;51.460;7.158;2023-02-27T09:42:15;101709.00;;;6.80
13570;BMP180;6856;51.460;7.158;2023-02-27T09:44:53;101716.00;;;6.90
13570;BMP180;6856;51.460;7.158;2023-02-27T09:47:34;101709.00;;;7.00
13570;BMP180;6856;51.460;7.158;2023-02-27T09:50:32;101714.00;;;7.10
13570;BMP180;6856;51.460;7.158;2023-02-27T09:53:22;101685.00;;;7.20
13570;BMP180;6856;51.460;7.158;2023-02-27T09:56:06;101721.00;;;7.20
13570;BMP180;6856;51.460;7.158;2023-02-27T09:58:48;101717.00;;;7.30
13570;BMP180;6856;51.460;7.158;2023-02-27T10:01:28;101703.00;;;7.30
13570;BMP180;6856;51.460;7.158;2023-02-27T10:04:29;101712.00;;;7.40
13570;BMP180;6856;51.460;7.158;2023-02-27T10:07:13;101705.00;;;7.40
13570;BMP180;6856;51.460;7.158;2023-02-27T10:09:59;101716.00;;;7.40
13570;BMP180;6856;51.460;7.158;2023-02-27T10:12:51;101711.00;;;7.50
13570;BMP180;6856;51.460;7.158;2023-02-27T10:15:32;101709.00;;;7.50
13570;BMP180;6856;51.460;7.158;2023-02-27T10:18:12;101698.00;;;7.60
13570;BMP180;6856;51.460;7.158;2023-02-27T10:21:03;101715.00;;;7.70
13570;BMP180;6856;51.460;7.158;2023-02-27T10:23:45;101715.00;;;7.80
13570;BMP180;6856;51.460;7.158;2023-02-27T10:26:26;101717.00;;;7.90
13570;BMP180;6856;51.460;7.158;2023-02-27T10:29:13;101716.00;;;7.90
13570;BMP180;6856;51.460;7.158;2023-02-27T10:31:58;101712.00;;;8.00
13570;BMP180;6856;51.460;7.158;2023-02-27T10:34:34;101713.00;;;8.10
13570;BMP180;6856;51.460;7.158;2023-02-27T10:37:14;101727.00;;;8.20
13570;BMP180;6856;51.460;7.158;2023-02-27T10:39:54;101720.00;;;8.20
13570;BMP180;6856;51.460;7.158;2023-02-27T10:42:33;101725.00;;;8.30
13570;BMP180;6856;51.460;7.158;2023-02-27T10:45:12;101724.00;;;8.40
13570;BMP180;6856;51.460;7.158;2023-02-27T10:47:47;101717.00;;;8.50
13570;BMP180;6856;51.460;7.158;2023-02-27T10:50:26;101722.00;;;8.60
13570;BMP180;6856;51.460;7.158;2023-02-27T10:53:03;101718.00;;;8.60
13570;BMP180;6856;51.460;7.158;2023-02-27T10:55:40;101726.00;;;8.70
13570;BMP180;6856;51.460;7.158;2023-02-27T10:58:19;101720.00;;;8.70
13570;BMP180;6856;51.460;7.158;2023-02-27T11:00:56;101714.00;;;8.70
13570;BMP180;6856;51.460;7.158;2023-02-27T11:03:35;101690.00;;;8.70
13570;BMP180;6856;51.460;7.158;2023-02-27T11:06:22;101704.00;;;8.70
13570;BMP180;6856;51.460;7.158;2023-02-27T11:09:20;101713.00;;;8.70
13570;BMP180;6856;51.460;7.158;2023-02-27T11:12:09;101719.00;;;8.70
13570;BMP180;6856;51.460;7.158;2023-02-27T11:14:50;101702.00;;;8.70
13570;BMP180;6856;51.460;7.158;2023-02-27T11:17:28;101682.00;;;8.70
13570;BMP180;6856;51.460;7.158;2023-02-27T11:20:04;101702.00;;;8.70
13570;BMP180;6856;51.460;7.158;2023-02-27T11:23:04;101696.00;;;8.70
13570;BMP180;6856;51.460;7.158;2023-02-27T11:25:40;101696.00;;;8.70
13570;BMP180;6856;51.460;7.158;2023-02-27T11:28:23;101698.00;;;8.70
13570;BMP180;6856;51.460;7.158;2023-02-27T11:31:01;101686.00;;;8.70
13570;BMP180;6856;51.460;7.158;2023-02-27T11:33:46;101677.00;;;8.80
13570;BMP180;6856;51.460;7.158;2023-02-27T11:36:21;101685.00;;;8.80
13570;BMP180;6856;51.460;7.158;2023-02-27T11:38:56;101684.00;;;8.90
13570;BMP180;6856;51.460;7.158;2023-02-27T11:41:33;101676.00;;;8.90
13570;BMP180;6856;51.460;7.158;2023-02-27T11:44:16;101682.00;;;8.90
13570;BMP180;6856;51.460;7.158;2023-02-27T11:47:15;101680.00;;;8.80
13570;BMP180;6856;51.460;7.158;2023-02-27T11:50:38;101670.00;;;8.80
13570;BMP180;6856;51.460;7.158;2023-02-27T11:56:21;101668.00;;;8.80
13570;BMP180;6856;51.460;7.158;2023-02-27T11:59:02;101663.00;;;8.80
13570;BMP180;6856;51.460;7.158;2023-02-27T12:01:47;101661.00;;;8.90
13570;BMP180;6856;51.460;7.158;2023-02-27T12:04:28;101667.00;;;9.00
13570;BMP180;6856;51.460;7.158;2023-02-27T12:07:09;101664.00;;;9.00
13570;BMP180;6856;51.460;7.158;2023-02-27T12:09:59;101639.00;;;9.10
13570;BMP180;6856;51.460;7.158;2023-02-27T12:12:42;101654.00;;;9.20
13570;BMP180;6856;51.460;7.158;2023-02-27T12:15:26;101657.00;;;9.30
13570;BMP180;6856;51.460;7.158;2023-02-27T12:18:14;101659.00;;;9.40
13570;BMP180;6856;51.460;7.158;2023-02-27T12:20:55;101659.00;;;9.50
13570;BMP180;6856;51.460;7.158;2023-02-27T12:23:39;101660.00;;;9.60
13570;BMP180;6856;51.460;7.158;2023-02-27T12:26:23;101642.00;;;9.70
13570;BMP180;6856;51.460;7.158;2023-02-27T12:29:04;101649.00;;;9.80
13570;BMP180;6856;51.460;7.158;2023-02-27T12:31:49;101659.00;;;9.90
13570;BMP180;6856;51.460;7.158;2023-02-27T12:34:34;101659.00;;;10.00
13570;BMP180;6856;51.460;7.158;2023-02-27T12:37:13;101652.00;;;10.10
13570;BMP180;6856;51.460;7.158;2023-02-27T12:39:47;101651.00;;;10.20
13570;BMP180;6856;51.460;7.158;2023-02-27T12:46:13;101657.00;;;10.50
13570;BMP180;6856;51.460;7.158;2023-02-27T12:49:18;101653.00;;;10.60
13570;BMP180;6856;51.460;7.158;2023-02-27T12:52:08;101649.00;;;10.70
13570;BMP180;6856;51.460;7.158;2023-02-27T12:54:55;101645.00;;;10.80
13570;BMP180;6856;51.460;7.158;2023-02-27T13:00:41;101656.00;;;10.90
13570;BMP180;6856;51.460;7.158;2023-02-27T13:03:24;101646.00;;;10.90
13570;BMP180;6856;51.460;7.158;2023-02-27T13:06:14;101640.00;;;10.90
13570;BMP180;6856;51.460;7.158;2023-02-27T13:09:14;101619.00;;;10.80
13570;BMP180;6856;51.460;7.158;2023-02-27T13:12:01;101643.00;;;10.70
13570;BMP180;6856;51.460;7.158;2023-02-27T13:14:46;101643.00;;;10.70
13570;BMP180;6856;51.460;7.158;2023-02-27T13:17:27;101652.00;;;10.70
13570;BMP180;6856;51.460;7.158;2023-02-27T13:20:24;101639.00;;;10.70
13570;BMP180;6856;51.460;7.158;2023-02-27T13:23:12;101634.00;;;10.70
13570;BMP180;6856;51.460;7.158;2023-02-27T13:25:52;101633.00;;;10.70
13570;BMP180;6856;51.460;7.158;2023-02-27T13:28:29;101639.00;;;10.70
13570;BMP180;6856;51.460;7.158;2023-02-27T13:31:08;101637.00;;;10.80
13570;BMP180;6856;51.460;7.158;2023-02-27T13:33:54;101648.00;;;10.80
13570;BMP180;6856;51.460;7.158;2023-02-27T13:36:38;101646.00;;;10.80
13570;BMP180;6856;51.460;7.158;2023-02-27T13:39:50;101647.00;;;10.80
13570;BMP180;6856;51.460;7.158;2023-02-27T13:42:56;101647.00;;;10.70
13570;BMP180;6856;51.460;7.158;2023-02-27T13:45:54;101647.00;;;10.60
13570;BMP180;6856;51.460;7.158;2023-02-27T13:48:49;101648.00;;;10.60
13570;BMP180;6856;51.460;7.158;2023-02-27T13:51:45;101646.00;;;10.60
13570;BMP180;6856;51.460;7.158;2023-02-27T13:54:24;101648.00;;;10.60
13570;BMP180;6856;51.460;7.158;2023-02-27T13:57:20;101649.00;;;10.50
13570;BMP180;6856;51.460;7.158;2023-02-27T14:00:00;101634.00;;;10.40
13570;BMP180;6856;51.460;7.158;2023-02-27T14:02:50;101649.00;;;10.30
13570;BMP180;6856;51.460;7.158;2023-02-27T14:05:36;101641.00;;;10.20
13570;BMP180;6856;51.460;7.158;2023-02-27T14:08:17;101644.00;;;10.20
13570;BMP180;6856;51.460;7.158;2023-02-27T14:10:59;101647.00;;;10.10
13570;BMP180;6856;51.460;7.158;2023-02-27T14:14:03;101644.00;;;10.10
13570;BMP180;6856;51.460;7.158;2023-02-27T14:16:59;101626.00;;;10.10
13570;BMP180;6856;51.460;7.158;2023-02-27T14:19:52;101637.00;;;10.10
13570;BMP180;6856;51.460;7.158;2023-02-27T14:23:14;101620.00;;;10.10
13570;BMP180;6856;51.460;7.158;2023-02-27T14:25:53;101624.00;;;10.10
13570;BMP180;6856;51.460;7.158;2023-02-27T14:28:31;101624.00;;;10.10
13570;BMP180;6856;51.460;7.158;2023-02-27T14:31:20;101623.00;;;10.10
13570;BMP180;6856;51.460;7.158;2023-02-27T14:33:58;101626.00;;;10.20
13570;BMP180;6856;51.460;7.158;2023-02-27T14:36:44;101621.00;;;10.10
13570;BMP180;6856;51.460;7.158;2023-02-27T14:39:21;101624.00;;;10.20
13570;BMP180;6856;51.460;7.158;2023-02-27T14:42:10;101616.00;;;10.20
13570;BMP180;6856;51.460;7.158;2023-02-27T14:44:49;101624.00;;;10.20
13570;BMP180;6856;51.460;7.158;2023-02-27T14:47:28;101622.00;;;10.20
13570;BMP180;6856;51.460;7.158;2023-02-27T14:50:23;101621.00;;;10.20
13570;BMP180;6856;51.460;7.158;2023-02-27T14:52:58;101627.00;;;10.10
13570;BMP180;6856;51.460;7.158;2023-02-27T14:55:36;101625.00;;;10.10
13570;BMP180;6856;51.460;7.158;2023-02-27T14:58:17;101626.00;;;10.10
13570;BMP180;6856;51.460;7.158;2023-02-27T15:01:06;101614.00;;;10.10
13570;BMP180;6856;51.460;7.158;2023-02-27T15:03:47;101623.00;;;10.00
13570;BMP180;6856;51.460;7.158;2023-02-27T15:06:32;101621.00;;;10.00
13570;BMP180;6856;51.460;7.158;2023-02-27T15:09:16;101619.00;;;9.90
13570;BMP180;6856;51.460;7.158;2023-02-27T15:11:55;101625.00;;;9.90
13570;BMP180;6856;51.460;7.158;2023-02-27T15:14:38;101625.00;;;9.90
13570;BMP180;6856;51.460;7.158;2023-02-27T15:17:18;101621.00;;;9.90
13570;BMP180;6856;51.460;7.158;2023-02-27T15:19:56;101620.00;;;9.90
13570;BMP180;6856;51.460;7.158;2023-02-27T15:22:36;101600.00;;;9.90
13570;BMP180;6856;51.460;7.158;2023-02-27T15:25:27;101631.00;;;9.90
13570;BMP180;6856;51.460;7.158;2023-02-27T15:28:05;101633.00;;;9.80
13570;BMP180;6856;51.460;7.158;2023-02-27T15:30:39;101631.00;;;9.80
13570;BMP180;6856;51.460;7.158;2023-02-27T15:33:15;101626.00;;;9.80
13570;BMP180;6856;51.460;7.158;2023-02-27T15:35:50;101628.00;;;9.70
13570;BMP180;6856;51.460;7.158;2023-02-27T15:38:33;101638.00;;;9.70
13570;BMP180;6856;51.460;7.158;2023-02-27T15:41:11;101645.00;;;9.60
13570;BMP180;6856;51.460;7.158;2023-02-27T15:43:45;101621.00;;;9.60
13570;BMP180;6856;51.460;7.158;2023-02-27T15:46:20;101634.00;;;9.60
13570;BMP180;6856;51.460;7.158;2023-02-27T15:48:54;101627.00;;;9.60
13570;BMP180;6856;51.460;7.158;2023-02-27T15:51:29;101619.00;;;9.60
13570;BMP180;6856;51.460;7.158;2023-02-27T15:54:05;101619.00;;;9.60
13570;BMP180;6856;51.460;7.158;2023-02-27T15:56:41;101616.00;;;9.60